Time;durP1;ratioP1;P1;durP2;ratioP2;P2;SDS_P1;SDS_P2;PMS_P1;PMS_P2;Temp;Humidity;BMP_temperature;BMP_pressure;BME280_temperature;BME280_humidity;BME280_pressure;Samples;Min_cycle;Max_cycle;Signal;HPM_P1;HPM_P2
2022/10/22 00:01:51;;;;;;;0.60;0.60;;;15.40;99.90;;;;;;5102424;28;20768;-69
2022/10/22 00:04:17;;;;;;;0.50;0.50;;;15.40;99.90;;;;;;5095550;28;20199;-69
2022/10/22 00:06:44;;;;;;;0.57;0.50;;;15.50;99.90;;;;;;5091857;28;20298;-70
2022/10/22 00:09:11;;;;;;;0.63;0.63;;;15.50;99.90;;;;;;5099299;28;20226;-69
2022/10/22 00:11:40;;;;;;;0.40;0.40;;;15.40;99.90;;;;;;5099247;28;20230;-70
2022/10/22 00:14:07;;;;;;;0.83;0.47;;;15.50;99.90;;;;;;5097401;28;20207;-70
2022/10/22 00:16:34;;;;;;;0.40;0.40;;;15.40;99.90;;;;;;5091022;28;20281;-69
2022/10/22 00:19:01;;;;;;;0.27;0.27;;;15.30;99.90;;;;;;5097901;28;20679;-69
2022/10/22 00:21:28;;;;;;;0.30;0.30;;;15.30;99.90;;;;;;5098529;28;20198;-70
2022/10/22 00:23:55;;;;;;;0.30;0.30;;;15.20;99.90;;;;;;5102503;28;20230;-68
2022/10/22 00:26:22;;;;;;;0.20;0.20;;;15.30;99.90;;;;;;5087320;28;20293;-67
2022/10/22 00:28:50;;;;;;;0.50;0.50;;;15.20;99.90;;;;;;5094327;28;20704;-69
2022/10/22 00:31:18;;;;;;;0.30;0.30;;;15.20;99.90;;;;;;5098817;28;20229;-70
2022/10/22 00:33:46;;;;;;;0.20;0.10;;;15.20;99.90;;;;;;5096683;28;20199;-68
2022/10/22 00:36:13;;;;;;;0.40;0.40;;;15.20;99.90;;;;;;5093581;28;20234;-70
2022/10/22 00:38:40;;;;;;;0.40;0.40;;;15.20;99.90;;;;;;5100217;28;20254;-70
2022/10/22 00:41:07;;;;;;;0.30;0.30;;;15.20;99.90;;;;;;5100495;28;20306;-71
2022/10/22 00:43:34;;;;;;;0.27;0.27;;;15.20;99.90;;;;;;5099044;28;20309;-70
2022/10/22 00:46:02;;;;;;;0.20;0.20;;;15.20;99.90;;;;;;5094625;28;20293;-68
2022/10/22 00:48:33;;;;;;;0.20;0.20;;;15.20;99.90;;;;;;5093369;28;20309;-67
2022/10/22 00:51:02;;;;;;;0.37;0.37;;;15.10;99.90;;;;;;5093867;28;20573;-70
2022/10/22 00:53:34;;;;;;;0.20;0.20;;;15.10;99.90;;;;;;5096133;28;20205;-68
2022/10/22 00:56:01;;;;;;;0.20;0.20;;;15.10;99.90;;;;;;5097118;28;20772;-69
2022/10/22 00:58:31;;;;;;;0.30;0.30;;;15.10;99.90;;;;;;5084317;28;20234;-68
2022/10/22 01:00:58;;;;;;;0.43;0.43;;;15.00;99.90;;;;;;5090445;28;20300;-68
2022/10/22 01:03:26;;;;;;;0.50;0.50;;;15.00;99.90;;;;;;5089339;28;20225;-69
2022/10/22 01:05:57;;;;;;;0.40;0.30;;;15.00;99.90;;;;;;5094879;28;20286;-70
2022/10/22 01:08:28;;;;;;;0.23;0.23;;;15.10;99.90;;;;;;5099684;28;20245;-69
2022/10/22 01:11:06;;;;;;;0.50;0.50;;;15.10;99.90;;;;;;5094803;28;20252;-70
2022/10/22 01:13:45;;;;;;;0.30;0.30;;;15.30;99.90;;;;;;5101533;28;20221;-68
2022/10/22 01:16:17;;;;;;;0.43;0.30;;;15.00;99.90;;;;;;5091071;28;20642;-70
2022/10/22 01:18:54;;;;;;;0.23;0.23;;;15.00;99.90;;;;;;5096787;28;20287;-69
2022/10/22 01:21:28;;;;;;;0.97;0.30;;;15.00;99.90;;;;;;5091145;28;20749;-69
2022/10/22 01:24:19;;;;;;;0.20;0.20;;;15.00;99.90;;;;;;5095127;28;20222;-69
2022/10/22 01:27:10;;;;;;;0.20;0.20;;;15.00;99.90;;;;;;5090877;28;20203;-69
2022/10/22 01:29:43;;;;;;;0.30;0.30;;;15.10;99.90;;;;;;5090084;28;20709;-69
2022/10/22 01:32:15;;;;;;;0.37;0.37;;;15.10;99.90;;;;;;5092400;28;20202;-69
2022/10/22 01:34:45;;;;;;;0.90;0.50;;;15.10;99.90;;;;;;5090683;28;20198;-69
2022/10/22 01:37:15;;;;;;;0.33;0.33;;;15.10;99.90;;;;;;5093505;28;20211;-69
2022/10/22 01:39:45;;;;;;;0.30;0.30;;;15.20;99.90;;;;;;5093064;28;20686;-70
2022/10/22 01:42:12;;;;;;;0.50;0.50;;;15.20;99.90;;;;;;5092339;28;20293;-69
2022/10/22 01:44:41;;;;;;;0.40;0.40;;;15.30;99.90;;;;;;5092568;28;20232;-69
2022/10/22 01:47:16;;;;;;;0.40;0.40;;;15.20;99.90;;;;;;5092591;28;20280;-69
2022/10/22 01:50:15;;;;;;;0.33;0.33;;;15.30;99.90;;;;;;5087387;28;20312;-69
2022/10/22 01:52:57;;;;;;;0.30;0.30;;;15.30;99.90;;;;;;5084516;28;20692;-70
2022/10/22 01:55:30;;;;;;;0.43;0.43;;;15.60;99.90;;;;;;5092354;28;20205;-69
2022/10/22 01:58:10;;;;;;;1.00;0.40;;;15.40;99.90;;;;;;5091926;28;20664;-69
2022/10/22 02:00:44;;;;;;;0.40;0.40;;;15.40;99.90;;;;;;5088462;28;20213;-69
2022/10/22 02:03:17;;;;;;;0.37;0.37;;;15.30;99.90;;;;;;5091673;28;20254;-70
2022/10/22 02:05:49;;;;;;;0.43;0.43;;;15.30;99.90;;;;;;5091786;28;20552;-70
2022/10/22 02:08:19;;;;;;;0.40;0.40;;;15.30;99.90;;;;;;5091793;28;20309;-68
2022/10/22 02:10:48;;;;;;;0.30;0.30;;;15.20;99.90;;;;;;5091711;28;20202;-71
2022/10/22 02:13:20;;;;;;;0.40;0.40;;;15.10;99.90;;;;;;5091323;28;20203;-69
2022/10/22 02:15:51;;;;;;;0.50;0.50;;;15.10;99.90;;;;;;5090586;28;20290;-68
2022/10/22 02:18:20;;;;;;;1.10;0.70;;;15.10;99.90;;;;;;5088890;28;20228;-70
2022/10/22 02:20:48;;;;;;;0.37;0.37;;;15.00;99.90;;;;;;5091822;28;20230;-68
2022/10/22 02:23:15;;;;;;;0.50;0.50;;;14.90;99.90;;;;;;5093417;28;20242;-68
2022/10/22 02:25:47;;;;;;;0.50;0.50;;;14.90;99.90;;;;;;5096793;28;20207;-70
2022/10/22 02:28:21;;;;;;;0.30;0.30;;;14.90;99.90;;;;;;5100103;28;20720;-68
2022/10/22 02:30:54;;;;;;;0.30;0.30;;;14.80;99.90;;;;;;5101266;28;20209;-69
2022/10/22 02:33:24;;;;;;;0.40;0.40;;;14.80;99.90;;;;;;5100060;28;20226;-69
2022/10/22 02:35:52;;;;;;;0.47;0.47;;;14.70;99.90;;;;;;5098509;28;20199;-70
2022/10/22 02:38:19;;;;;;;0.50;0.50;;;14.70;99.90;;;;;;5097043;28;20325;-69
2022/10/22 02:40:47;;;;;;;0.33;0.30;;;14.70;99.90;;;;;;5095759;28;20756;-69
2022/10/22 02:43:13;;;;;;;0.50;0.50;;;14.70;99.90;;;;;;5095254;28;20215;-69
2022/10/22 02:45:40;;;;;;;0.37;0.30;;;14.70;99.90;;;;;;5096229;28;20293;-68
2022/10/22 02:48:09;;;;;;;0.43;0.30;;;14.70;99.90;;;;;;5095278;28;20301;-68
2022/10/22 02:50:36;;;;;;;0.57;0.57;;;14.70;99.90;;;;;;5087019;28;20194;-68
2022/10/22 02:53:03;;;;;;;0.40;0.40;;;14.70;99.90;;;;;;5094963;28;20610;-69
2022/10/22 02:55:29;;;;;;;0.50;0.50;;;14.70;99.90;;;;;;5095464;28;20210;-71
2022/10/22 02:57:56;;;;;;;0.60;0.60;;;14.80;99.90;;;;;;5094652;28;20206;-71
2022/10/22 03:00:23;;;;;;;0.50;0.50;;;14.80;99.90;;;;;;5095442;28;20575;-68
2022/10/22 03:02:50;;;;;;;1.03;1.03;;;14.80;99.90;;;;;;5094641;28;20240;-68
2022/10/22 03:05:18;;;;;;;0.40;0.40;;;14.90;99.90;;;;;;5094868;28;20290;-68
2022/10/22 03:07:45;;;;;;;0.47;0.47;;;14.90;99.90;;;;;;5094589;28;20198;-69
2022/10/22 03:10:12;;;;;;;0.40;0.40;;;14.80;99.90;;;;;;5094651;28;20589;-68
2022/10/22 03:12:39;;;;;;;0.27;0.27;;;14.80;99.90;;;;;;5095422;28;20213;-69
2022/10/22 03:15:06;;;;;;;0.33;0.33;;;14.80;99.90;;;;;;5096116;28;20205;-68
2022/10/22 03:17:33;;;;;;;0.40;0.40;;;14.80;99.90;;;;;;5094707;28;20205;-69
2022/10/22 03:20:00;;;;;;;0.40;0.40;;;14.80;99.90;;;;;;5094448;28;20313;-70
2022/10/22 03:22:32;;;;;;;0.97;0.97;;;14.80;99.90;;;;;;5094010;28;20751;-69
2022/10/22 03:25:02;;;;;;;0.60;0.60;;;14.80;99.90;;;;;;5094975;28;20583;-70
2022/10/22 03:27:30;;;;;;;0.40;0.37;;;14.80;99.90;;;;;;5094347;28;20769;-69
2022/10/22 03:29:57;;;;;;;0.43;0.43;;;14.90;99.90;;;;;;5095430;28;20318;-70
2022/10/22 03:32:24;;;;;;;0.33;0.33;;;14.90;99.90;;;;;;5094201;28;20289;-69
2022/10/22 03:34:51;;;;;;;0.37;0.37;;;14.80;99.90;;;;;;5094461;28;20293;-70
2022/10/22 03:37:19;;;;;;;0.33;0.33;;;14.90;99.90;;;;;;5095063;28;20230;-68
2022/10/22 03:39:47;;;;;;;0.50;0.50;;;14.90;99.90;;;;;;5094540;28;20266;-70
2022/10/22 03:42:15;;;;;;;0.73;0.40;;;14.90;99.90;;;;;;5094190;28;20199;-69
2022/10/22 03:44:42;;;;;;;0.27;0.27;;;14.90;99.90;;;;;;5094640;28;20271;-69
2022/10/22 03:47:09;;;;;;;0.20;0.20;;;14.90;99.90;;;;;;5094509;28;20586;-69
2022/10/22 03:49:36;;;;;;;0.50;0.50;;;14.90;99.90;;;;;;5093499;28;20688;-68
2022/10/22 03:52:07;;;;;;;0.57;0.50;;;14.90;99.90;;;;;;5093792;28;20202;-69
2022/10/22 03:54:34;;;;;;;0.30;0.30;;;15.00;99.90;;;;;;5093870;28;20298;-68
2022/10/22 03:57:03;;;;;;;0.40;0.40;;;15.00;99.90;;;;;;5093808;28;20841;-70
2022/10/22 03:59:34;;;;;;;0.40;0.40;;;15.00;99.90;;;;;;5093735;28;20234;-69
2022/10/22 04:02:01;;;;;;;0.43;0.43;;;15.00;99.90;;;;;;5093764;28;20213;-69
2022/10/22 04:04:28;;;;;;;0.30;0.30;;;15.10;99.90;;;;;;5093795;28;20244;-69
2022/10/22 04:06:55;;;;;;;0.27;0.27;;;15.10;99.90;;;;;;5097389;28;20213;-68
2022/10/22 04:09:22;;;;;;;0.43;0.43;;;15.20;99.90;;;;;;5097448;28;20226;-70
2022/10/22 04:11:49;;;;;;;0.30;0.30;;;15.10;99.90;;;;;;5094097;28;20202;-69
2022/10/22 04:14:17;;;;;;;0.30;0.30;;;15.20;99.90;;;;;;5093610;28;20226;-70
2022/10/22 04:16:44;;;;;;;0.77;0.57;;;15.10;99.90;;;;;;5093748;28;20228;-69
2022/10/22 04:19:10;;;;;;;0.63;0.40;;;15.10;99.90;;;;;;5093758;28;20222;-68
2022/10/22 04:21:37;;;;;;;0.77;0.50;;;15.10;99.90;;;;;;5093463;28;20209;-71
2022/10/22 04:24:05;;;;;;;0.50;0.50;;;15.00;99.90;;;;;;5093543;28;20222;-69
2022/10/22 04:26:31;;;;;;;0.50;0.50;;;15.00;99.90;;;;;;5093291;28;20281;-70
2022/10/22 04:28:58;;;;;;;0.50;0.50;;;15.00;99.90;;;;;;5093052;28;20297;-71
2022/10/22 04:31:27;;;;;;;0.47;0.47;;;14.90;99.90;;;;;;5092893;28;20207;-67
2022/10/22 04:33:54;;;;;;;0.40;0.40;;;15.00;99.90;;;;;;5093033;28;20199;-71
2022/10/22 04:36:21;;;;;;;0.60;0.60;;;14.80;99.90;;;;;;5093052;28;20206;-69
2022/10/22 04:38:53;;;;;;;0.47;0.47;;;14.80;99.90;;;;;;5093521;28;20591;-69
2022/10/22 04:41:22;;;;;;;0.43;0.43;;;14.80;99.90;;;;;;5094459;28;20205;-69
2022/10/22 04:43:49;;;;;;;0.30;0.30;;;14.80;99.90;;;;;;5094380;28;20822;-69
2022/10/22 04:46:17;;;;;;;0.90;0.40;;;14.80;99.90;;;;;;5093502;28;20209;-68
2022/10/22 04:48:46;;;;;;;0.50;0.50;;;14.80;99.90;;;;;;5094404;28;20222;-68
2022/10/22 04:51:15;;;;;;;0.73;0.50;;;14.80;99.90;;;;;;5093528;28;20202;-69
2022/10/22 04:53:42;;;;;;;0.43;0.43;;;14.80;99.90;;;;;;5093586;28;20425;-70
2022/10/22 04:56:12;;;;;;;0.60;0.60;;;14.80;99.90;;;;;;5096569;28;20194;-68
2022/10/22 04:58:39;;;;;;;0.60;0.60;;;14.80;99.90;;;;;;5093796;28;20253;-70
2022/10/22 05:01:11;;;;;;;0.47;0.40;;;14.80;99.90;;;;;;5103897;28;20207;-69
2022/10/22 05:03:38;;;;;;;0.30;0.30;;;14.90;99.90;;;;;;5095225;28;20301;-69
2022/10/22 05:06:07;;;;;;;0.30;0.30;;;14.90;99.90;;;;;;5099780;28;20270;-69
2022/10/22 05:08:34;;;;;;;0.50;0.50;;;14.90;99.90;;;;;;5103469;28;20250;-69
2022/10/22 05:11:01;;;;;;;0.50;0.40;;;14.90;99.90;;;;;;5104859;28;20234;-69
2022/10/22 05:13:27;;;;;;;0.40;0.40;;;14.90;99.90;;;;;;5104827;28;20222;-68
2022/10/22 05:15:54;;;;;;;0.50;0.50;;;15.10;99.90;;;;;;5100957;28;20244;-69
2022/10/22 05:18:21;;;;;;;0.30;0.30;;;14.80;99.90;;;;;;5092986;28;20700;-68
2022/10/22 05:20:48;;;;;;;0.50;0.50;;;14.80;99.90;;;;;;5092913;28;20205;-69
2022/10/22 05:23:16;;;;;;;0.50;0.50;;;14.80;99.90;;;;;;5091867;28;20683;-69
2022/10/22 05:25:43;;;;;;;2.63;0.80;;;14.90;99.90;;;;;;5092337;28;20302;-69
2022/10/22 05:28:10;;;;;;;0.90;0.90;;;14.80;99.90;;;;;;5092343;28;20269;-69
2022/10/22 05:30:37;;;;;;;1.30;1.20;;;14.80;99.90;;;;;;5090512;28;20206;-69
2022/10/22 05:33:04;;;;;;;1.10;1.10;;;14.70;99.90;;;;;;5092612;28;20206;-69
2022/10/22 05:35:30;;;;;;;0.80;0.80;;;14.70;99.90;;;;;;5093393;28;20209;-69
2022/10/22 05:37:57;;;;;;;0.80;0.80;;;14.60;99.90;;;;;;5093513;28;20656;-70
2022/10/22 05:40:25;;;;;;;0.80;0.80;;;14.60;99.90;;;;;;5104534;22;20229;-61
2022/10/22 05:42:52;;;;;;;0.80;0.80;;;14.60;99.90;;;;;;5069252;28;20227;-61
2022/10/22 05:45:19;;;;;;;0.77;0.77;;;14.60;99.90;;;;;;5071698;28;20215;-62
2022/10/22 05:47:46;;;;;;;0.93;0.80;;;14.60;99.90;;;;;;5071978;28;20229;-61
2022/10/22 05:50:13;;;;;;;0.77;0.77;;;14.60;99.90;;;;;;5070511;28;20732;-61
2022/10/22 05:52:39;;;;;;;0.70;0.70;;;14.60;99.90;;;;;;5071142;28;20676;-63
2022/10/22 05:55:07;;;;;;;0.90;0.70;;;14.60;99.90;;;;;;5071557;28;20206;-61
2022/10/22 05:57:35;;;;;;;0.77;0.60;;;14.50;99.90;;;;;;5072156;28;20572;-63
2022/10/22 06:00:02;;;;;;;0.97;0.80;;;14.60;99.90;;;;;;5076083;28;20209;-61
2022/10/22 06:02:28;;;;;;;0.70;0.70;;;14.50;99.90;;;;;;5075595;28;20393;-62
2022/10/22 06:04:55;;;;;;;0.60;0.60;;;14.50;99.90;;;;;;5075725;28;20217;-61
2022/10/22 06:07:22;;;;;;;0.60;0.60;;;14.50;99.90;;;;;;5075787;28;20199;-62
2022/10/22 06:09:49;;;;;;;0.70;0.70;;;14.50;99.90;;;;;;5075773;28;20226;-62
2022/10/22 06:12:16;;;;;;;0.80;0.80;;;14.50;99.90;;;;;;5075742;28;20229;-60
2022/10/22 06:14:44;;;;;;;0.57;0.57;;;14.50;99.90;;;;;;5075627;28;20195;-60
2022/10/22 06:17:12;;;;;;;1.00;0.50;;;14.40;99.90;;;;;;5076000;28;20210;-60
2022/10/22 06:19:39;;;;;;;0.50;0.50;;;14.50;99.90;;;;;;5070489;28;20221;-62
2022/10/22 06:22:06;;;;;;;1.33;0.70;;;14.50;99.90;;;;;;5074857;28;20223;-62
2022/10/22 06:24:33;;;;;;;0.60;0.60;;;14.40;99.90;;;;;;5075189;28;20219;-62
2022/10/22 06:26:59;;;;;;;0.40;0.40;;;14.40;99.90;;;;;;5075061;28;20203;-62
2022/10/22 06:29:26;;;;;;;0.57;0.57;;;14.40;99.90;;;;;;5071728;28;20654;-62
2022/10/22 06:31:54;;;;;;;0.70;0.70;;;14.40;99.90;;;;;;5071095;28;20218;-61
2022/10/22 06:34:21;;;;;;;0.97;0.87;;;14.40;99.90;;;;;;5073891;28;20672;-61
2022/10/22 06:36:50;;;;;;;0.53;0.53;;;14.40;99.90;;;;;;5074488;28;20212;-62
2022/10/22 06:39:17;;;;;;;0.50;0.50;;;14.30;99.90;;;;;;5077252;28;20203;-62
2022/10/22 06:41:45;;;;;;;0.60;0.60;;;14.30;99.90;;;;;;5075836;28;20731;-61
2022/10/22 06:44:14;;;;;;;0.50;0.50;;;14.30;99.90;;;;;;5074817;28;20250;-61
2022/10/22 06:46:41;;;;;;;0.43;0.43;;;14.30;99.90;;;;;;5075103;28;20207;-62
2022/10/22 06:49:12;;;;;;;0.50;0.50;;;14.20;99.90;;;;;;5074589;28;20208;-61
2022/10/22 06:51:39;;;;;;;0.80;0.80;;;14.20;99.90;;;;;;5066544;28;20713;-61
2022/10/22 06:54:06;;;;;;;0.90;0.90;;;14.20;99.90;;;;;;5074654;28;20521;-62
2022/10/22 06:56:33;;;;;;;0.67;0.67;;;14.20;99.90;;;;;;5074807;28;20203;-62
2022/10/22 06:59:00;;;;;;;1.67;0.73;;;14.20;99.90;;;;;;5074288;28;20209;-61
2022/10/22 07:01:30;;;;;;;0.97;0.90;;;14.10;99.90;;;;;;5074306;28;20219;-62
2022/10/22 07:03:57;;;;;;;0.40;0.40;;;14.20;99.90;;;;;;5074581;28;20211;-62
2022/10/22 07:06:27;;;;;;;1.07;0.77;;;14.20;99.90;;;;;;5074460;28;20203;-62
2022/10/22 07:08:55;;;;;;;0.80;0.80;;;14.30;99.90;;;;;;5073471;28;20299;-62
2022/10/22 07:11:24;;;;;;;0.63;0.63;;;14.30;99.90;;;;;;5074373;28;20222;-64
2022/10/22 07:13:53;;;;;;;0.50;0.50;;;14.40;99.90;;;;;;5074913;28;20298;-62
2022/10/22 07:16:20;;;;;;;0.50;0.50;;;14.40;99.90;;;;;;5073987;28;20669;-61
2022/10/22 07:18:47;;;;;;;0.60;0.60;;;14.40;99.90;;;;;;5074186;28;20199;-62
2022/10/22 07:21:16;;;;;;;0.70;0.70;;;14.50;99.90;;;;;;5073710;28;20227;-62
2022/10/22 07:23:44;;;;;;;0.53;0.53;;;14.50;99.90;;;;;;5073780;28;20199;-62
2022/10/22 07:26:12;;;;;;;0.60;0.60;;;14.60;99.90;;;;;;5073343;28;20218;-61
2022/10/22 07:28:40;;;;;;;0.90;0.70;;;14.70;99.90;;;;;;5071120;28;20252;-62
2022/10/22 07:31:07;;;;;;;0.30;0.30;;;14.80;99.90;;;;;;5073042;28;20611;-62
2022/10/22 07:33:34;;;;;;;0.93;0.80;;;14.80;99.90;;;;;;5073985;28;20306;-62
2022/10/22 07:36:03;;;;;;;0.50;0.50;;;14.90;99.90;;;;;;5074375;28;20250;-61
2022/10/22 07:38:30;;;;;;;0.70;0.70;;;15.10;99.90;;;;;;5074042;28;20203;-62
2022/10/22 07:40:59;;;;;;;0.57;0.57;;;15.20;99.90;;;;;;5073042;28;20231;-62
2022/10/22 07:43:26;;;;;;;0.70;0.70;;;15.40;99.90;;;;;;5075622;28;20199;-63
2022/10/22 07:45:54;;;;;;;1.17;0.60;;;15.40;99.90;;;;;;5091958;28;20278;-63
2022/10/22 07:48:21;;;;;;;0.50;0.50;;;15.60;99.90;;;;;;5090900;28;20225;-62
2022/10/22 07:50:49;;;;;;;0.50;0.50;;;15.70;99.90;;;;;;5090677;28;20312;-64
2022/10/22 07:53:16;;;;;;;0.40;0.40;;;15.70;99.90;;;;;;5077896;28;20199;-62
2022/10/22 07:55:43;;;;;;;0.50;0.50;;;15.80;99.90;;;;;;5074823;28;20196;-62
2022/10/22 07:58:11;;;;;;;0.37;0.37;;;15.90;99.90;;;;;;5074071;28;20214;-64
2022/10/22 08:00:38;;;;;;;0.63;0.63;;;16.00;99.90;;;;;;5071238;28;20219;-61
2022/10/22 08:03:05;;;;;;;1.13;0.60;;;16.10;99.90;;;;;;5073664;28;20206;-62
2022/10/22 08:05:31;;;;;;;0.40;0.40;;;16.20;99.90;;;;;;5073551;28;20784;-60
2022/10/22 08:07:58;;;;;;;0.50;0.50;;;16.30;99.90;;;;;;5072068;28;20205;-62
2022/10/22 08:10:25;;;;;;;0.53;0.53;;;16.40;99.90;;;;;;5073253;28;20234;-61
2022/10/22 08:12:52;;;;;;;0.80;0.70;;;16.20;99.90;;;;;;5072849;28;20206;-60
2022/10/22 08:15:22;;;;;;;0.50;0.50;;;16.20;99.90;;;;;;5071770;28;20202;-62
2022/10/22 08:17:49;;;;;;;0.50;0.50;;;16.20;99.90;;;;;;5073512;28;20203;-62
2022/10/22 08:20:16;;;;;;;0.40;0.40;;;16.20;99.90;;;;;;5072405;28;20200;-61
2022/10/22 08:22:43;;;;;;;0.80;0.80;;;16.30;99.90;;;;;;5072349;28;20203;-63
2022/10/22 08:25:10;;;;;;;1.60;0.80;;;16.40;99.90;;;;;;5072553;28;20614;-62
2022/10/22 08:27:37;;;;;;;0.80;0.80;;;16.70;99.90;;;;;;5072227;28;20199;-62
2022/10/22 08:30:05;;;;;;;0.53;0.53;;;16.70;99.90;;;;;;5073244;28;20576;-62
2022/10/22 08:32:34;;;;;;;0.60;0.60;;;16.80;99.90;;;;;;5072672;28;20214;-59
2022/10/22 08:35:00;;;;;;;0.40;0.40;;;17.00;99.90;;;;;;5072656;28;20206;-60
2022/10/22 08:37:27;;;;;;;0.50;0.50;;;17.10;99.90;;;;;;5072521;28;20230;-61
2022/10/22 08:39:54;;;;;;;0.60;0.60;;;17.20;99.90;;;;;;5072851;28;20207;-61
2022/10/22 08:42:39;;;;;;;0.57;0.57;;;17.50;99.90;;;;;;5071826;28;20610;-62
2022/10/22 08:45:12;;;;;;;0.50;0.50;;;17.60;99.90;;;;;;5071980;28;20253;-62
2022/10/22 08:47:57;;;;;;;0.60;0.60;;;17.80;99.90;;;;;;5071060;28;20203;-63
2022/10/22 08:50:30;;;;;;;0.53;0.53;;;18.00;99.90;;;;;;5072967;28;20233;-64
2022/10/22 08:53:01;;;;;;;0.50;0.50;;;18.10;99.90;;;;;;5073467;28;20587;-62
2022/10/22 08:55:28;;;;;;;0.60;0.60;;;18.20;99.90;;;;;;5073772;28;20198;-63
2022/10/22 08:58:00;;;;;;;0.50;0.50;;;18.50;99.90;;;;;;5073134;28;20201;-63
2022/10/22 09:00:34;;;;;;;0.50;0.50;;;18.60;99.90;;;;;;5072161;28;20223;-62
2022/10/22 09:03:18;;;;;;;0.60;0.50;;;18.80;99.90;;;;;;5071816;28;20293;-63
2022/10/22 09:05:54;;;;;;;0.80;0.80;;;19.00;99.90;;;;;;5071433;28;20224;-61
2022/10/22 09:08:21;;;;;;;0.97;0.63;;;19.10;99.90;;;;;;5071729;28;20207;-64
2022/10/22 09:10:50;;;;;;;0.60;0.60;;;19.30;99.90;;;;;;5071881;28;20576;-64
2022/10/22 09:13:20;;;;;;;0.67;0.67;;;19.40;99.90;;;;;;5072297;28;20199;-63
2022/10/22 09:15:51;;;;;;;0.70;0.70;;;19.50;99.90;;;;;;5071956;28;20202;-64
2022/10/22 09:18:30;;;;;;;0.63;0.50;;;19.60;99.90;;;;;;5070939;28;20196;-64
2022/10/22 09:21:02;;;;;;;0.63;0.53;;;19.80;99.90;;;;;;5069763;28;20229;-63
2022/10/22 09:23:37;;;;;;;0.90;0.90;;;19.90;99.90;;;;;;5070275;28;20204;-63
2022/10/22 09:26:12;;;;;;;0.60;0.60;;;20.00;99.90;;;;;;5071588;28;20596;-62
2022/10/22 09:28:38;;;;;;;0.37;0.37;;;20.20;99.90;;;;;;5070506;28;20289;-61
2022/10/22 09:31:11;;;;;;;0.87;0.70;;;20.30;99.90;;;;;;5071665;28;20218;-63
2022/10/22 09:33:40;;;;;;;0.60;0.60;;;20.40;99.90;;;;;;5069653;28;20286;-63
2022/10/22 09:36:07;;;;;;;0.43;0.43;;;20.50;99.90;;;;;;5072140;28;20199;-63
2022/10/22 09:38:40;;;;;;;0.50;0.50;;;20.60;99.90;;;;;;5079946;28;20199;-62
2022/10/22 09:41:09;;;;;;;0.67;0.67;;;20.60;99.90;;;;;;5095408;28;20295;-63
2022/10/22 09:43:36;;;;;;;0.50;0.50;;;20.60;99.90;;;;;;5096237;28;20247;-63
2022/10/22 09:46:05;;;;;;;0.50;0.50;;;20.70;99.90;;;;;;5091150;28;20258;-63
2022/10/22 09:48:36;;;;;;;0.40;0.40;;;20.70;99.90;;;;;;5084912;28;20294;-64
2022/10/22 09:51:10;;;;;;;0.50;0.50;;;20.80;99.90;;;;;;5071026;28;20234;-62
2022/10/22 09:53:41;;;;;;;0.53;0.53;;;20.90;99.90;;;;;;5071465;28;20202;-62
2022/10/22 09:56:10;;;;;;;0.50;0.50;;;20.90;99.90;;;;;;5072058;28;20217;-62
2022/10/22 09:58:45;;;;;;;0.60;0.60;;;20.90;99.90;;;;;;5069165;28;20213;-63
2022/10/22 10:01:18;;;;;;;0.40;0.40;;;21.10;99.90;;;;;;5071224;28;20228;-62
2022/10/22 10:03:47;;;;;;;0.50;0.50;;;21.20;99.90;;;;;;5070761;28;20214;-63
2022/10/22 10:06:19;;;;;;;0.57;0.57;;;21.20;99.90;;;;;;5069563;28;20226;-63
2022/10/22 10:08:46;;;;;;;0.50;0.50;;;21.30;99.90;;;;;;5068516;28;20199;-64
2022/10/22 10:11:21;;;;;;;0.60;0.60;;;21.30;99.90;;;;;;5069997;28;20286;-63
2022/10/22 10:13:59;;;;;;;0.60;0.60;;;21.30;99.90;;;;;;5066680;28;20199;-63
2022/10/22 10:16:35;;;;;;;0.57;0.50;;;21.30;99.90;;;;;;5070540;28;20201;-63
2022/10/22 10:19:16;;;;;;;0.47;0.47;;;21.30;99.90;;;;;;5071555;28;20199;-63
2022/10/22 10:21:54;;;;;;;0.37;0.37;;;21.40;99.90;;;;;;5069956;28;20717;-64
2022/10/22 10:24:29;;;;;;;0.33;0.33;;;21.50;99.90;;;;;;5070490;28;20203;-63
2022/10/22 10:27:02;;;;;;;0.53;0.53;;;21.60;99.90;;;;;;5068754;28;20218;-62
2022/10/22 10:29:41;;;;;;;0.50;0.50;;;21.60;99.90;;;;;;5071875;28;20200;-63
2022/10/22 10:32:27;;;;;;;0.50;0.50;;;21.70;99.90;;;;;;5070621;28;20219;-63
2022/10/22 10:35:02;;;;;;;0.60;0.60;;;21.70;99.90;;;;;;5069136;28;20202;-62
2022/10/22 10:37:40;;;;;;;0.40;0.40;;;21.80;99.90;;;;;;5065712;28;20206;-62
2022/10/22 10:40:21;;;;;;;0.70;0.70;;;21.90;99.90;;;;;;5069479;28;20203;-63
2022/10/22 10:42:54;;;;;;;0.50;0.50;;;21.80;99.90;;;;;;5069804;28;20203;-62
2022/10/22 10:45:30;;;;;;;0.80;0.80;;;21.90;99.90;;;;;;5071966;28;20571;-62
2022/10/22 10:48:13;;;;;;;0.67;0.67;;;21.90;99.90;;;;;;5074806;28;20199;-62
2022/10/22 10:50:51;;;;;;;0.43;0.43;;;22.00;99.90;;;;;;5069338;28;20239;-64
2022/10/22 10:53:31;;;;;;;0.43;0.43;;;21.90;99.90;;;;;;5074747;28;20285;-62
2022/10/22 10:56:06;;;;;;;0.70;0.70;;;21.90;99.90;;;;;;5076195;28;20202;-63
2022/10/22 10:58:43;;;;;;;0.67;0.67;;;22.00;99.90;;;;;;5073311;28;20218;-63
2022/10/22 11:01:21;;;;;;;0.67;0.67;;;22.00;99.90;;;;;;5073226;28;20227;-64
2022/10/22 11:04:20;;;;;;;0.77;0.77;;;22.20;99.90;;;;;;5072947;28;20200;-62
2022/10/22 11:06:49;;;;;;;0.60;0.60;;;22.20;99.90;;;;;;5067392;28;20227;-62
2022/10/22 11:09:24;;;;;;;0.50;0.50;;;22.20;99.90;;;;;;5073926;28;20199;-63
2022/10/22 11:11:56;;;;;;;0.60;0.60;;;22.20;99.90;;;;;;5073892;28;20231;-63
2022/10/22 11:14:30;;;;;;;0.60;0.60;;;22.40;99.90;;;;;;5075104;28;20210;-61
2022/10/22 11:17:01;;;;;;;0.70;0.70;;;22.40;99.90;;;;;;5078342;28;20242;-62
2022/10/22 11:19:34;;;;;;;0.50;0.50;;;22.40;99.90;;;;;;5079593;28;20192;-61
2022/10/22 11:22:05;;;;;;;0.60;0.60;;;22.50;99.90;;;;;;5076098;28;20700;-62
2022/10/22 11:24:40;;;;;;;0.67;0.67;;;22.50;99.90;;;;;;5075128;28;20217;-62
2022/10/22 11:27:15;;;;;;;0.50;0.50;;;22.50;99.90;;;;;;5074107;28;20258;-63
2022/10/22 11:29:47;;;;;;;0.70;0.70;;;22.50;99.90;;;;;;5073795;28;20206;-62
2022/10/22 11:32:18;;;;;;;0.70;0.70;;;22.40;99.90;;;;;;5074658;28;20218;-63
2022/10/22 11:34:48;;;;;;;1.47;0.80;;;22.50;99.90;;;;;;5075129;28;20213;-63
2022/10/22 11:37:16;;;;;;;0.77;0.77;;;22.40;99.90;;;;;;5074265;28;20211;-64
2022/10/22 11:39:49;;;;;;;0.43;0.43;;;22.40;99.90;;;;;;5073714;28;20207;-64
2022/10/22 11:42:20;;;;;;;0.63;0.63;;;22.50;99.90;;;;;;5072736;28;20223;-63
2022/10/22 11:44:49;;;;;;;0.90;0.90;;;22.50;99.90;;;;;;5073073;28;20288;-63
2022/10/22 11:47:20;;;;;;;0.70;0.70;;;22.60;99.90;;;;;;5072942;28;20211;-61
2022/10/22 11:49:57;;;;;;;0.80;0.80;;;22.50;99.90;;;;;;5073588;28;20204;-65
2022/10/22 11:52:39;;;;;;;1.00;0.70;;;22.60;99.90;;;;;;5071113;28;20237;-63
2022/10/22 11:55:31;;;;;;;0.53;0.53;;;22.60;99.90;;;;;;5070988;28;20210;-65
2022/10/22 11:58:00;;;;;;;0.80;0.80;;;22.50;99.90;;;;;;5070995;28;20211;-65
2022/10/22 12:00:39;;;;;;;0.60;0.60;;;22.60;99.90;;;;;;5067418;28;20589;-64
2022/10/22 12:03:17;;;;;;;0.70;0.70;;;22.60;99.90;;;;;;5068988;28;20214;-65
2022/10/22 12:05:44;;;;;;;0.60;0.60;;;22.70;99.90;;;;;;5072721;28;20223;-64
2022/10/22 12:08:25;;;;;;;0.80;0.73;;;22.60;99.90;;;;;;5073471;28;20207;-64
2022/10/22 12:11:15;;;;;;;0.80;0.80;;;22.60;99.90;;;;;;5074854;28;20219;-64
2022/10/22 12:13:58;;;;;;;0.83;0.83;;;22.40;99.90;;;;;;5070458;28;20212;-63
2022/10/22 12:16:26;;;;;;;0.60;0.60;;;22.40;99.90;;;;;;5077079;28;20195;-64
2022/10/22 12:19:06;;;;;;;0.70;0.70;;;22.50;99.90;;;;;;5071578;28;20205;-64
2022/10/22 12:21:34;;;;;;;0.77;0.60;;;22.50;99.90;;;;;;5073246;28;20727;-63
2022/10/22 12:24:02;;;;;;;0.50;0.50;;;22.60;99.90;;;;;;5074644;28;20207;-63
2022/10/22 12:26:33;;;;;;;0.50;0.50;;;22.50;99.90;;;;;;5075232;28;20222;-63
2022/10/22 12:29:01;;;;;;;0.77;0.77;;;22.40;99.90;;;;;;5074877;28;20282;-63
2022/10/22 12:31:35;;;;;;;0.60;0.60;;;22.30;99.90;;;;;;5072521;28;20692;-63
2022/10/22 12:34:02;;;;;;;0.70;0.70;;;22.40;99.90;;;;;;5073693;28;20248;-62
2022/10/22 12:36:30;;;;;;;0.70;0.70;;;22.40;99.90;;;;;;5073634;28;20202;-61
2022/10/22 12:39:00;;;;;;;0.70;0.70;;;22.60;99.90;;;;;;5075259;28;20199;-62
2022/10/22 12:41:33;;;;;;;0.63;0.63;;;22.60;99.90;;;;;;5072464;28;20227;-63
2022/10/22 12:44:00;;;;;;;0.70;0.70;;;22.60;99.90;;;;;;5071779;28;20192;-64
2022/10/22 12:46:30;;;;;;;0.60;0.60;;;22.50;99.90;;;;;;5075632;28;20277;-62
2022/10/22 12:48:59;;;;;;;0.63;0.63;;;22.40;99.90;;;;;;5075426;28;20205;-62
2022/10/22 12:51:26;;;;;;;0.60;0.60;;;22.40;99.90;;;;;;5073566;28;20215;-62
2022/10/22 12:53:54;;;;;;;0.73;0.73;;;22.50;99.90;;;;;;5073546;28;20214;-63
2022/10/22 12:56:23;;;;;;;0.60;0.60;;;22.60;99.90;;;;;;5070989;28;20195;-63
2022/10/22 12:58:57;;;;;;;0.70;0.70;;;22.60;99.90;;;;;;5073450;28;20230;-64
2022/10/22 13:01:26;;;;;;;1.13;1.07;;;22.60;99.90;;;;;;5073847;28;20223;-63
2022/10/22 13:04:06;;;;;;;0.63;0.63;;;22.60;99.90;;;;;;5069450;28;20225;-62